Time;durP1;ratioP1;P1;durP2;ratioP2;P2;SDS_P1;SDS_P2;PMS_P1;PMS_P2;Temp;Humidity;BMP_temperature;BMP_pressure;BME280_temperature;BME280_humidity;BME280_pressure;Samples;Min_cycle;Max_cycle;Signal;HPM_P1;HPM_P2
2022/08/03 00:01:19;;;;;;;4.83;4.40;;;;;;;;;;5051076;28;20200;-55
2022/08/03 00:03:45;;;;;;;7.20;4.40;;;;;;;;;;5051216;28;20238;-55
2022/08/03 00:06:11;;;;;;;6.03;4.50;;;;;;;;;;5051033;28;20226;-55
2022/08/03 00:08:37;;;;;;;5.13;4.63;;;;;;;;;;5050939;28;20721;-54
2022/08/03 00:11:05;;;;;;;6.13;4.60;;;;;;;;;;5050948;28;20442;-54
2022/08/03 00:13:32;;;;;;;7.77;4.57;;;;;;;;;;5051409;28;20231;-54
2022/08/03 00:15:58;;;;;;;6.33;4.60;;;;;;;;;;5054669;28;20270;-55
2022/08/03 00:18:24;;;;;;;5.13;4.73;;;;;;;;;;5054271;28;20777;-55
2022/08/03 00:20:50;;;;;;;4.93;4.53;;;;;;;;;;5054322;28;20202;-55
2022/08/03 00:23:16;;;;;;;5.00;4.50;;;;;;;;;;5054505;28;20222;-55
2022/08/03 00:25:42;;;;;;;4.87;4.40;;;;;;;;;;5054163;28;20661;-55
2022/08/03 00:28:09;;;;;;;4.40;4.10;;;;;;;;;;5054258;28;20198;-54
2022/08/03 00:30:35;;;;;;;5.33;4.83;;;;;;;;;;5054058;28;20204;-54
2022/08/03 00:33:01;;;;;;;4.13;3.83;;;;;;;;;;5054349;28;20254;-54
2022/08/03 00:35:28;;;;;;;5.93;4.40;;;;;;;;;;5054004;28;20203;-55
2022/08/03 00:37:54;;;;;;;4.83;4.43;;;;;;;;;;5053956;28;20237;-55
2022/08/03 00:40:20;;;;;;;5.53;4.27;;;;;;;;;;5054047;28;20202;-55
2022/08/03 00:42:47;;;;;;;5.37;4.57;;;;;;;;;;5053976;28;20223;-55
2022/08/03 00:45:14;;;;;;;4.53;4.10;;;;;;;;;;5053786;28;20377;-55
2022/08/03 00:47:40;;;;;;;5.67;4.67;;;;;;;;;;5053844;28;20255;-55
2022/08/03 00:50:06;;;;;;;4.47;4.10;;;;;;;;;;5053825;28;20199;-54
2022/08/03 00:52:34;;;;;;;5.13;4.63;;;;;;;;;;5053776;28;20196;-55
2022/08/03 00:55:00;;;;;;;5.40;4.90;;;;;;;;;;5053880;28;20618;-55
2022/08/03 00:57:26;;;;;;;5.50;5.00;;;;;;;;;;5053566;28;20241;-55
2022/08/03 00:59:52;;;;;;;5.07;4.57;;;;;;;;;;5053737;28;20213;-55
2022/08/03 01:02:19;;;;;;;5.23;4.60;;;;;;;;;;5053687;28;20202;-55
2022/08/03 01:04:45;;;;;;;5.20;4.77;;;;;;;;;;5053541;28;20208;-55
2022/08/03 01:07:16;;;;;;;5.35;4.80;;;;;;;;;;5052308;28;20416;-55
2022/08/03 01:09:45;;;;;;;5.17;4.77;;;;;;;;;;5053343;28;20192;-55
2022/08/03 01:12:14;;;;;;;5.40;4.90;;;;;;;;;;5053313;28;20654;-55
2022/08/03 01:14:43;;;;;;;5.43;4.67;;;;;;;;;;5053273;28;20199;-54
2022/08/03 01:17:11;;;;;;;6.47;4.30;;;;;;;;;;5053272;28;20238;-54
2022/08/03 01:19:53;;;;;;;5.43;4.90;;;;;;;;;;5053246;28;20203;-55
2022/08/03 01:22:52;;;;;;;4.80;4.40;;;;;;;;;;5053271;28;20203;-54
2022/08/03 01:25:24;;;;;;;5.30;4.90;;;;;;;;;;4972051;28;20205;-55
2022/08/03 01:27:54;;;;;;;5.10;4.53;;;;;;;;;;4972188;28;20265;-54
2022/08/03 01:30:23;;;;;;;4.87;4.47;;;;;;;;;;5012588;28;20286;-54
2022/08/03 01:32:52;;;;;;;5.30;4.80;;;;;;;;;;5053050;28;20196;-54
2022/08/03 01:35:21;;;;;;;5.03;4.53;;;;;;;;;;5053099;28;20198;-54
2022/08/03 01:37:50;;;;;;;5.57;5.07;;;;;;;;;;5052892;28;20242;-54
2022/08/03 01:40:17;;;;;;;6.07;5.00;;;;;;;;;;5053138;28;20573;-54
2022/08/03 01:42:43;;;;;;;5.80;5.23;;;;;;;;;;5052809;28;20287;-54
2022/08/03 01:45:11;;;;;;;5.83;4.90;;;;;;;;;;5052573;28;20659;-55
2022/08/03 01:47:39;;;;;;;5.03;4.63;;;;;;;;;;5052684;28;20256;-55
2022/08/03 01:50:06;;;;;;;5.20;4.80;;;;;;;;;;5052730;28;20206;-54
2022/08/03 01:52:33;;;;;;;5.50;5.10;;;;;;;;;;5052703;28;20210;-54
2022/08/03 01:55:00;;;;;;;4.80;4.47;;;;;;;;;;5052824;28;20209;-54
2022/08/03 01:57:27;;;;;;;9.00;4.73;;;;;;;;;;5052297;28;20751;-54
2022/08/03 01:59:53;;;;;;;5.13;4.73;;;;;;;;;;5052625;28;20473;-55
2022/08/03 02:02:20;;;;;;;5.30;4.80;;;;;;;;;;5052488;28;20273;-54
2022/08/03 02:04:48;;;;;;;5.27;4.87;;;;;;;;;;5052485;28;20259;-54
2022/08/03 02:07:15;;;;;;;5.00;4.60;;;;;;;;;;5052536;28;20203;-55
2022/08/03 02:09:43;;;;;;;5.20;4.40;;;;;;;;;;5052275;28;20213;-55
2022/08/03 02:12:10;;;;;;;5.13;4.73;;;;;;;;;;5052332;28;20197;-54
2022/08/03 02:14:37;;;;;;;4.77;4.37;;;;;;;;;;5052165;28;20207;-55
2022/08/03 02:17:04;;;;;;;5.20;4.77;;;;;;;;;;5052204;28;20233;-55
2022/08/03 02:19:30;;;;;;;5.27;4.70;;;;;;;;;;5052136;28;20664;-54
2022/08/03 02:21:58;;;;;;;5.10;4.60;;;;;;;;;;5052209;28;20209;-55
2022/08/03 02:24:24;;;;;;;5.20;4.73;;;;;;;;;;5052079;28;20272;-54
2022/08/03 02:26:51;;;;;;;4.93;4.53;;;;;;;;;;5051965;28;20198;-54
2022/08/03 02:29:19;;;;;;;4.90;4.50;;;;;;;;;;5052158;28;20198;-54
2022/08/03 02:31:46;;;;;;;5.27;4.77;;;;;;;;;;5052018;28;20241;-54
2022/08/03 02:34:13;;;;;;;4.80;4.50;;;;;;;;;;5051907;28;20238;-55
2022/08/03 02:36:40;;;;;;;5.07;4.60;;;;;;;;;;5051130;28;20875;-54
2022/08/03 02:39:09;;;;;;;6.17;4.73;;;;;;;;;;5051885;28;20204;-54
2022/08/03 02:41:37;;;;;;;5.00;4.60;;;;;;;;;;5051621;28;20680;-54
2022/08/03 02:44:07;;;;;;;5.00;4.60;;;;;;;;;;5051790;28;20570;-55
2022/08/03 02:46:36;;;;;;;4.87;4.47;;;;;;;;;;5051707;28;20299;-54
2022/08/03 02:49:03;;;;;;;5.40;4.87;;;;;;;;;;5051835;28;20213;-54
2022/08/03 02:51:30;;;;;;;5.20;4.70;;;;;;;;;;5051700;28;20683;-54
2022/08/03 02:53:57;;;;;;;5.83;5.10;;;;;;;;;;5051869;28;20702;-54
2022/08/03 02:56:25;;;;;;;5.20;4.70;;;;;;;;;;5051541;28;20199;-54
2022/08/03 02:58:52;;;;;;;5.20;4.50;;;;;;;;;;5051370;28;20240;-54
2022/08/03 03:01:19;;;;;;;5.00;4.60;;;;;;;;;;5051802;28;20560;-54
2022/08/03 03:03:45;;;;;;;5.67;4.97;;;;;;;;;;5051552;28;20298;-54
2022/08/03 03:06:12;;;;;;;5.70;4.70;;;;;;;;;;5051552;28;20240;-54
2022/08/03 03:08:38;;;;;;;6.13;5.27;;;;;;;;;;5051468;28;20674;-54
2022/08/03 03:11:05;;;;;;;5.67;5.17;;;;;;;;;;5051547;28;20242;-54
2022/08/03 03:13:32;;;;;;;5.53;5.13;;;;;;;;;;5051479;28;20217;-54
2022/08/03 03:16:00;;;;;;;5.73;5.33;;;;;;;;;;5051567;28;20209;-54
2022/08/03 03:18:27;;;;;;;5.43;5.03;;;;;;;;;;5051274;28;20319;-54
2022/08/03 03:20:53;;;;;;;5.73;5.17;;;;;;;;;;5051484;28;20198;-55
2022/08/03 03:23:20;;;;;;;5.83;5.33;;;;;;;;;;5051345;28;20206;-54
2022/08/03 03:25:47;;;;;;;5.27;4.87;;;;;;;;;;5051459;28;20592;-54
2022/08/03 03:28:13;;;;;;;5.27;4.83;;;;;;;;;;5051320;28;20253;-54
2022/08/03 03:30:40;;;;;;;5.33;4.93;;;;;;;;;;5051231;28;20211;-54
2022/08/03 03:33:06;;;;;;;5.63;5.10;;;;;;;;;;5051276;28;20205;-54
2022/08/03 03:35:33;;;;;;;5.93;5.03;;;;;;;;;;5051335;28;20298;-54
2022/08/03 03:37:59;;;;;;;5.63;5.03;;;;;;;;;;5051270;28;20226;-54
2022/08/03 03:40:25;;;;;;;6.13;5.23;;;;;;;;;;5051204;28;20217;-54
2022/08/03 03:42:51;;;;;;;5.47;4.97;;;;;;;;;;5051227;28;20217;-54
2022/08/03 03:45:18;;;;;;;5.50;5.10;;;;;;;;;;5051022;28;20276;-54
2022/08/03 03:47:45;;;;;;;6.53;5.43;;;;;;;;;;5052077;28;20243;-54
2022/08/03 03:50:11;;;;;;;5.63;5.13;;;;;;;;;;5054995;28;20236;-54
2022/08/03 03:52:37;;;;;;;5.20;4.70;;;;;;;;;;5054815;28;20204;-54
2022/08/03 03:55:03;;;;;;;6.00;5.20;;;;;;;;;;5054991;28;20283;-54
2022/08/03 03:57:29;;;;;;;6.07;5.50;;;;;;;;;;5054696;28;20703;-54
2022/08/03 03:59:55;;;;;;;6.00;5.27;;;;;;;;;;5054906;28;20235;-54
2022/08/03 04:02:21;;;;;;;5.67;5.23;;;;;;;;;;5054725;28;20318;-54
2022/08/03 04:13:10;;;;;;;5.50;5.10;;;;;;;;;;5054557;28;20232;-54
2022/08/03 04:15:37;;;;;;;6.07;5.47;;;;;;;;;;5054411;28;20205;-54
2022/08/03 04:18:04;;;;;;;5.80;5.30;;;;;;;;;;5054514;28;20228;-54
2022/08/03 04:20:34;;;;;;;5.77;5.23;;;;;;;;;;5054527;28;20198;-54
2022/08/03 04:23:01;;;;;;;5.13;4.63;;;;;;;;;;5054586;28;20214;-54
2022/08/03 04:25:28;;;;;;;7.90;5.30;;;;;;;;;;5054361;28;20190;-54
2022/08/03 04:27:58;;;;;;;6.37;5.10;;;;;;;;;;5054378;28;20201;-54
2022/08/03 04:30:26;;;;;;;5.20;4.80;;;;;;;;;;5054257;28;20281;-54
2022/08/03 04:32:52;;;;;;;5.77;5.27;;;;;;;;;;5054218;28;20292;-54
2022/08/03 04:35:18;;;;;;;5.30;4.80;;;;;;;;;;5054060;28;20251;-54
2022/08/03 04:37:47;;;;;;;4.80;4.47;;;;;;;;;;5053959;28;20780;-54
2022/08/03 04:40:14;;;;;;;4.90;4.43;;;;;;;;;;5054154;28;20281;-54
2022/08/03 04:42:41;;;;;;;4.90;4.50;;;;;;;;;;5053864;28;20217;-54
2022/08/03 04:45:09;;;;;;;4.43;4.10;;;;;;;;;;5053719;28;20269;-54
2022/08/03 04:47:35;;;;;;;5.03;4.07;;;;;;;;;;5054028;28;20194;-54
2022/08/03 04:50:02;;;;;;;4.83;4.17;;;;;;;;;;5053891;28;20626;-54
2022/08/03 04:52:28;;;;;;;4.50;4.10;;;;;;;;;;5053785;28;20708;-54
2022/08/03 04:54:55;;;;;;;4.63;4.23;;;;;;;;;;5053937;28;20256;-54
2022/08/03 04:57:22;;;;;;;5.10;4.40;;;;;;;;;;5053576;28;20221;-54
2022/08/03 04:59:51;;;;;;;4.30;3.90;;;;;;;;;;5052977;28;20264;-54
2022/08/03 05:02:17;;;;;;;4.43;4.00;;;;;;;;;;5053743;28;20205;-54
2022/08/03 05:04:45;;;;;;;4.40;4.00;;;;;;;;;;5053510;28;20200;-54
2022/08/03 05:07:11;;;;;;;5.37;4.03;;;;;;;;;;5053486;28;20285;-54
2022/08/03 05:09:37;;;;;;;4.10;3.80;;;;;;;;;;5053399;28;20300;-54
2022/08/03 05:12:05;;;;;;;4.33;3.93;;;;;;;;;;5053513;28;20198;-54
2022/08/03 05:14:31;;;;;;;4.00;3.67;;;;;;;;;;5053420;28;20241;-54
2022/08/03 05:16:57;;;;;;;5.13;3.90;;;;;;;;;;5053154;28;20203;-55
2022/08/03 05:19:23;;;;;;;3.80;3.50;;;;;;;;;;5053326;28;20203;-54
2022/08/03 05:21:49;;;;;;;4.33;3.93;;;;;;;;;;5053152;28;20204;-54
2022/08/03 05:24:15;;;;;;;3.70;3.33;;;;;;;;;;5053396;28;20306;-54
2022/08/03 05:26:41;;;;;;;4.30;3.80;;;;;;;;;;5052997;28;20204;-54
2022/08/03 05:29:08;;;;;;;6.37;4.10;;;;;;;;;;5053145;28;20653;-55
2022/08/03 05:31:34;;;;;;;4.10;3.33;;;;;;;;;;5053019;28;20298;-54
2022/08/03 05:34:00;;;;;;;3.77;3.40;;;;;;;;;;5053300;28;20227;-55
2022/08/03 05:36:27;;;;;;;4.77;3.77;;;;;;;;;;5052994;28;20227;-54
2022/08/03 05:38:53;;;;;;;3.60;3.30;;;;;;;;;;5052780;28;20307;-54
2022/08/03 05:41:19;;;;;;;3.60;3.30;;;;;;;;;;5052813;28;20200;-55
2022/08/03 05:43:45;;;;;;;3.47;3.23;;;;;;;;;;5052572;28;20246;-54
2022/08/03 05:46:12;;;;;;;5.60;3.47;;;;;;;;;;5052739;28;20600;-54
2022/08/03 05:48:38;;;;;;;3.40;3.10;;;;;;;;;;5052528;28;20294;-54
2022/08/03 05:51:06;;;;;;;3.90;3.20;;;;;;;;;;5052662;28;20299;-55
2022/08/03 05:53:32;;;;;;;4.40;3.10;;;;;;;;;;5052650;28;20208;-54
2022/08/03 05:55:58;;;;;;;3.93;3.07;;;;;;;;;;5052608;28;20194;-54
2022/08/03 05:58:24;;;;;;;5.17;3.27;;;;;;;;;;5052473;28;20320;-54
2022/08/03 06:00:50;;;;;;;3.67;3.10;;;;;;;;;;5052485;28;20621;-54
2022/08/03 06:03:18;;;;;;;4.70;3.13;;;;;;;;;;5052653;28;20206;-54
2022/08/03 06:05:44;;;;;;;3.50;3.17;;;;;;;;;;5052493;28;20204;-54
2022/08/03 06:08:10;;;;;;;3.30;2.93;;;;;;;;;;5052447;28;20569;-54
2022/08/03 06:10:37;;;;;;;3.27;2.97;;;;;;;;;;5051890;28;20208;-54
2022/08/03 06:13:03;;;;;;;3.07;2.77;;;;;;;;;;5051773;28;20274;-54
2022/08/03 06:15:32;;;;;;;6.17;2.87;;;;;;;;;;5052193;28;20733;-55
2022/08/03 06:17:58;;;;;;;3.50;2.70;;;;;;;;;;5052151;28;20736;-54
2022/08/03 06:20:25;;;;;;;3.07;2.77;;;;;;;;;;5052155;28;20234;-54
2022/08/03 06:22:51;;;;;;;4.20;2.90;;;;;;;;;;5052429;28;20201;-54
2022/08/03 06:25:18;;;;;;;3.80;2.60;;;;;;;;;;5052126;28;20650;-54
2022/08/03 06:27:44;;;;;;;2.80;2.60;;;;;;;;;;5051967;28;20204;-54
2022/08/03 06:30:11;;;;;;;2.77;2.43;;;;;;;;;;5051963;28;20205;-54
2022/08/03 06:32:37;;;;;;;3.50;2.77;;;;;;;;;;5051736;28;20244;-54
2022/08/03 06:35:03;;;;;;;3.27;2.77;;;;;;;;;;5051989;28;20200;-54
2022/08/03 06:37:30;;;;;;;3.17;2.53;;;;;;;;;;5051871;28;20285;-54
2022/08/03 06:39:56;;;;;;;5.70;2.57;;;;;;;;;;5051768;28;20615;-54
2022/08/03 06:42:22;;;;;;;4.87;2.57;;;;;;;;;;5051710;28;20201;-54
2022/08/03 06:44:49;;;;;;;2.80;2.60;;;;;;;;;;5051441;28;20248;-55
2022/08/03 06:47:15;;;;;;;3.63;2.70;;;;;;;;;;5051920;28;20205;-54
2022/08/03 06:49:41;;;;;;;5.67;2.53;;;;;;;;;;5051801;28;20203;-55
2022/08/03 06:52:07;;;;;;;4.27;2.60;;;;;;;;;;5051706;28;20412;-55
2022/08/03 06:54:37;;;;;;;2.57;2.27;;;;;;;;;;5051638;28;20212;-57
2022/08/03 06:57:03;;;;;;;3.70;2.50;;;;;;;;;;5051617;28;20295;-55
2022/08/03 06:59:29;;;;;;;3.73;2.57;;;;;;;;;;5051766;28;20248;-55
2022/08/03 07:01:55;;;;;;;4.33;2.70;;;;;;;;;;5051634;28;20200;-55
2022/08/03 07:04:21;;;;;;;2.70;2.30;;;;;;;;;;5051473;28;20300;-55
2022/08/03 07:06:47;;;;;;;2.97;2.30;;;;;;;;;;5051543;28;20207;-55
2022/08/03 07:09:13;;;;;;;3.03;2.57;;;;;;;;;;5051626;28;20309;-54
2022/08/03 07:11:40;;;;;;;2.93;2.10;;;;;;;;;;5051297;28;20203;-55
2022/08/03 07:14:06;;;;;;;6.60;2.40;;;;;;;;;;5051438;28;20198;-54
2022/08/03 07:16:32;;;;;;;2.67;2.03;;;;;;;;;;5051490;28;20697;-55
2022/08/03 07:18:58;;;;;;;2.87;2.20;;;;;;;;;;5051534;28;20304;-54
2022/08/03 07:21:24;;;;;;;3.40;2.20;;;;;;;;;;5051429;28;20204;-54
2022/08/03 07:23:50;;;;;;;5.23;2.13;;;;;;;;;;5054090;28;20205;-54
2022/08/03 07:26:16;;;;;;;3.00;2.27;;;;;;;;;;5055537;28;20614;-55
2022/08/03 07:28:43;;;;;;;2.77;2.40;;;;;;;;;;5055332;28;20208;-55
2022/08/03 07:31:09;;;;;;;3.30;2.20;;;;;;;;;;5055414;28;20320;-55
2022/08/03 07:33:35;;;;;;;2.83;2.00;;;;;;;;;;5055142;28;20286;-55
2022/08/03 07:36:01;;;;;;;4.57;1.90;;;;;;;;;;5055412;28;20206;-55
2022/08/03 07:38:28;;;;;;;3.53;2.00;;;;;;;;;;5055138;28;20577;-55
2022/08/03 07:40:54;;;;;;;2.93;2.20;;;;;;;;;;5055117;28;20204;-55
2022/08/03 07:43:20;;;;;;;3.57;2.07;;;;;;;;;;5054978;28;20235;-55
2022/08/03 07:45:48;;;;;;;4.50;2.40;;;;;;;;;;5055079;28;20220;-55
2022/08/03 07:48:14;;;;;;;4.70;2.27;;;;;;;;;;5054946;28;20657;-55
2022/08/03 07:50:40;;;;;;;4.00;2.13;;;;;;;;;;5054892;28;20224;-55
2022/08/03 07:53:06;;;;;;;3.13;2.10;;;;;;;;;;5054854;28;20200;-55
2022/08/03 07:55:32;;;;;;;3.73;2.20;;;;;;;;;;5054993;28;20617;-55
2022/08/03 07:58:02;;;;;;;8.03;2.33;;;;;;;;;;5054707;28;20224;-55
2022/08/03 08:00:28;;;;;;;2.37;1.80;;;;;;;;;;5054788;28;20285;-55
2022/08/03 08:02:55;;;;;;;5.50;1.93;;;;;;;;;;5054729;28;20224;-55
2022/08/03 08:05:21;;;;;;;3.00;2.03;;;;;;;;;;5054606;28;20754;-56
2022/08/03 08:07:47;;;;;;;3.20;2.00;;;;;;;;;;5054719;28;20283;-55
2022/08/03 08:10:13;;;;;;;6.10;2.40;;;;;;;;;;5054667;28;20244;-56
2022/08/03 08:12:39;;;;;;;5.50;2.30;;;;;;;;;;5054293;28;20233;-56
2022/08/03 08:15:06;;;;;;;4.47;2.20;;;;;;;;;;5054544;28;20196;-56
2022/08/03 08:17:40;;;;;;;7.33;1.80;;;;;;;;;;5054186;28;20225;-56
2022/08/03 08:20:08;;;;;;;3.83;1.97;;;;;;;;;;5054452;28;20198;-56
2022/08/03 08:22:34;;;;;;;2.50;1.70;;;;;;;;;;5054290;28;20333;-56
2022/08/03 08:25:00;;;;;;;4.23;1.80;;;;;;;;;;5054531;28;20285;-55
2022/08/03 08:27:26;;;;;;;4.10;2.03;;;;;;;;;;5054008;28;20202;-56
2022/08/03 08:29:52;;;;;;;2.07;1.70;;;;;;;;;;5054055;28;20700;-56
2022/08/03 08:32:18;;;;;;;2.63;1.70;;;;;;;;;;5054235;28;20237;-56
2022/08/03 08:34:44;;;;;;;1.80;1.70;;;;;;;;;;5053128;28;20549;-56
2022/08/03 08:37:11;;;;;;;5.23;2.20;;;;;;;;;;5054036;28;20206;-56
2022/08/03 08:39:37;;;;;;;5.70;2.00;;;;;;;;;;5054030;28;20207;-56
2022/08/03 08:42:03;;;;;;;3.90;2.00;;;;;;;;;;5054066;28;20696;-56
2022/08/03 08:44:30;;;;;;;3.33;2.10;;;;;;;;;;5053887;28;20249;-55
2022/08/03 08:46:57;;;;;;;4.97;2.13;;;;;;;;;;5053863;28;20203;-55
2022/08/03 08:49:26;;;;;;;3.13;1.60;;;;;;;;;;5053877;28;20196;-56
2022/08/03 08:51:54;;;;;;;2.33;1.70;;;;;;;;;;5053726;28;20211;-56
2022/08/03 08:54:21;;;;;;;5.47;2.10;;;;;;;;;;5053848;28;20203;-55
2022/08/03 08:56:48;;;;;;;5.80;2.10;;;;;;;;;;5053711;28;20210;-56
2022/08/03 08:59:14;;;;;;;5.57;2.07;;;;;;;;;;5053879;28;20270;-56
2022/08/03 09:01:42;;;;;;;6.17;1.70;;;;;;;;;;5053544;28;20200;-55
2022/08/03 09:04:09;;;;;;;8.17;1.97;;;;;;;;;;5053592;28;20250;-56
2022/08/03 09:06:35;;;;;;;3.77;1.83;;;;;;;;;;5053513;28;20197;-55
2022/08/03 09:09:01;;;;;;;3.30;1.50;;;;;;;;;;5053639;28;20200;-56
2022/08/03 09:11:28;;;;;;;3.83;1.90;;;;;;;;;;5053415;28;20195;-56
2022/08/03 09:13:54;;;;;;;5.63;1.70;;;;;;;;;;5053270;28;20605;-56
2022/08/03 09:16:21;;;;;;;3.90;1.63;;;;;;;;;;5053368;28;20211;-56
2022/08/03 09:18:49;;;;;;;4.13;1.80;;;;;;;;;;5053187;28;20225;-56
2022/08/03 09:21:16;;;;;;;2.60;1.60;;;;;;;;;;5053416;28;20284;-56
2022/08/03 09:23:46;;;;;;;2.97;1.53;;;;;;;;;;5053104;28;20600;-56
2022/08/03 09:26:13;;;;;;;2.57;1.87;;;;;;;;;;5053189;28;20204;-56
2022/08/03 09:28:40;;;;;;;3.33;1.80;;;;;;;;;;5053022;28;20201;-56
2022/08/03 09:31:07;;;;;;;4.87;2.00;;;;;;;;;;5053020;28;20300;-56
2022/08/03 09:33:45;;;;;;;1.93;1.50;;;;;;;;;;5052968;28;20218;-56
2022/08/03 09:36:31;;;;;;;7.00;1.80;;;;;;;;;;5053176;28;20204;-56
2022/08/03 09:39:02;;;;;;;4.80;1.67;;;;;;;;;;5052841;28;20230;-56
2022/08/03 09:41:28;;;;;;;3.00;1.70;;;;;;;;;;5053023;28;20218;-56
2022/08/03 09:43:56;;;;;;;3.33;1.70;;;;;;;;;;5052534;28;20838;-56
2022/08/03 09:46:22;;;;;;;4.83;2.13;;;;;;;;;;5052632;28;20252;-56
2022/08/03 09:48:48;;;;;;;4.03;1.70;;;;;;;;;;5052662;28;20669;-56
2022/08/03 09:51:18;;;;;;;2.23;1.80;;;;;;;;;;5052894;28;20213;-56
2022/08/03 09:53:44;;;;;;;5.07;2.00;;;;;;;;;;5052604;28;20211;-56
2022/08/03 09:56:10;;;;;;;7.03;1.67;;;;;;;;;;5052659;28;20573;-56
2022/08/03 09:58:44;;;;;;;6.10;2.00;;;;;;;;;;5052375;28;20234;-56
2022/08/03 10:01:12;;;;;;;3.67;1.53;;;;;;;;;;5052592;28;20211;-56
2022/08/03 10:03:38;;;;;;;2.53;1.77;;;;;;;;;;5052431;28;20203;-56
2022/08/03 10:06:14;;;;;;;3.57;1.93;;;;;;;;;;5052346;28;20204;-56
2022/08/03 10:08:40;;;;;;;3.50;2.00;;;;;;;;;;5052463;28;20196;-56
2022/08/03 10:11:06;;;;;;;6.37;2.00;;;;;;;;;;5052257;28;20249;-56
2022/08/03 10:13:32;;;;;;;4.87;1.70;;;;;;;;;;5052283;28;20310;-55
2022/08/03 10:15:58;;;;;;;6.63;2.00;;;;;;;;;;5052155;28;20204;-55
2022/08/03 10:18:25;;;;;;;5.10;1.90;;;;;;;;;;5052149;28;20233;-55
2022/08/03 10:20:52;;;;;;;8.53;1.83;;;;;;;;;;5052054;28;20211;-55
2022/08/03 10:23:19;;;;;;;4.73;2.00;;;;;;;;;;5052299;28;20200;-55
2022/08/03 10:25:47;;;;;;;4.07;1.80;;;;;;;;;;5051987;28;20196;-55
2022/08/03 10:28:15;;;;;;;3.67;1.63;;;;;;;;;;5052195;28;20255;-55
2022/08/03 10:30:44;;;;;;;3.60;1.87;;;;;;;;;;5051895;28;20209;-55
2022/08/03 10:33:14;;;;;;;3.80;1.70;;;;;;;;;;5052168;28;20193;-55
2022/08/03 10:35:41;;;;;;;4.10;2.10;;;;;;;;;;5052070;28;20229;-55
2022/08/03 10:38:09;;;;;;;4.40;1.93;;;;;;;;;;5051549;28;20778;-55
2022/08/03 10:40:37;;;;;;;4.00;2.20;;;;;;;;;;5051716;28;20208;-55
2022/08/03 10:43:07;;;;;;;3.53;2.00;;;;;;;;;;5051730;28;20199;-55
2022/08/03 10:45:35;;;;;;;4.90;2.37;;;;;;;;;;5051767;28;20580;-55
2022/08/03 10:48:01;;;;;;;3.17;2.00;;;;;;;;;;5051789;28;20617;-55
2022/08/03 10:50:28;;;;;;;4.70;2.07;;;;;;;;;;5051672;28;20577;-55
2022/08/03 10:52:56;;;;;;;5.23;2.10;;;;;;;;;;5051406;28;20634;-55
2022/08/03 10:58:31;;;;;;;7.53;1.87;;;;;;;;;;5050990;28;20248;-55
2022/08/03 11:00:57;;;;;;;3.20;1.70;;;;;;;;;;5050819;28;20201;-55
2022/08/03 11:03:23;;;;;;;4.97;2.10;;;;;;;;;;5051521;28;20687;-55
2022/08/03 11:05:52;;;;;;;4.03;1.90;;;;;;;;;;5051366;28;20199;-55
2022/08/03 11:08:33;;;;;;;4.37;1.90;;;;;;;;;;5051602;28;20206;-55
2022/08/03 11:11:01;;;;;;;3.40;1.77;;;;;;;;;;5051525;28;20681;-55
2022/08/03 11:13:29;;;;;;;3.93;1.93;;;;;;;;;;5051421;28;20193;-56
2022/08/03 11:15:56;;;;;;;2.80;1.90;;;;;;;;;;5051300;28;20201;-55
2022/08/03 11:18:23;;;;;;;4.33;1.83;;;;;;;;;;5051396;28;20236;-55
2022/08/03 11:20:50;;;;;;;4.60;2.07;;;;;;;;;;5051225;28;20305;-55
2022/08/03 11:23:17;;;;;;;7.27;1.77;;;;;;;;;;5051472;28;20580;-55
2022/08/03 11:26:02;;;;;;;4.80;1.80;;;;;;;;;;5051201;28;20657;-56
2022/08/03 11:28:29;;;;;;;5.00;1.80;;;;;;;;;;5051430;28;20596;-56
2022/08/03 11:30:55;;;;;;;3.43;1.90;;;;;;;;;;5051208;28;20758;-56
2022/08/03 11:33:30;;;;;;;4.23;2.10;;;;;;;;;;5051153;28;20291;-55
2022/08/03 11:36:00;;;;;;;3.70;2.87;;;;;;;;;;5051164;28;20281;-57
2022/08/03 11:38:26;;;;;;;9.23;2.20;;;;;;;;;;5051128;28;20266;-57
2022/08/03 11:40:53;;;;;;;4.77;3.47;;;;;;;;;;5051043;28;20204;-57
2022/08/03 11:43:42;;;;;;;4.90;2.20;;;;;;;;;;5050969;28;20236;-57
2022/08/03 11:46:16;;;;;;;4.93;2.00;;;;;;;;;;5050917;28;20188;-55
2022/08/03 11:48:43;;;;;;;3.87;2.00;;;;;;;;;;5051114;28;20269;-56
2022/08/03 11:51:18;;;;;;;2.77;1.80;;;;;;;;;;5051223;28;20224;-57
2022/08/03 11:53:46;;;;;;;6.00;2.07;;;;;;;;;;5051127;28;20203;-57
2022/08/03 11:56:12;;;;;;;4.00;1.90;;;;;;;;;;5051148;28;20482;-56
2022/08/03 11:58:46;;;;;;;4.93;1.97;;;;;;;;;;5050895;28;20226;-58
2022/08/03 12:01:15;;;;;;;3.93;2.10;;;;;;;;;;5051098;28;20247;-55
2022/08/03 12:03:42;;;;;;;4.03;1.90;;;;;;;;;;5050924;28;20207;-55
2022/08/03 12:06:09;;;;;;;5.83;1.93;;;;;;;;;;5050957;28;20427;-55
2022/08/03 12:08:35;;;;;;;4.43;1.90;;;;;;;;;;5051379;28;20660;-55
2022/08/03 12:11:03;;;;;;;4.70;2.10;;;;;;;;;;5054715;28;20290;-55
2022/08/03 12:13:36;;;;;;;4.23;1.80;;;;;;;;;;5054688;28;20200;-55
2022/08/03 12:16:02;;;;;;;3.23;1.93;;;;;;;;;;5054527;28;20206;-60
2022/08/03 12:18:30;;;;;;;8.30;2.33;;;;;;;;;;5054446;28;20227;-55
2022/08/03 12:21:03;;;;;;;5.63;2.20;;;;;;;;;;5054569;28;20620;-55
2022/08/03 12:23:29;;;;;;;4.53;1.80;;;;;;;;;;5054572;28;20202;-57
2022/08/03 12:26:00;;;;;;;4.80;2.00;;;;;;;;;;5054178;28;20211;-57
2022/08/03 12:28:26;;;;;;;6.87;2.20;;;;;;;;;;5054148;28;20197;-56
2022/08/03 12:30:53;;;;;;;6.93;2.30;;;;;;;;;;5053939;28;20204;-57
2022/08/03 12:33:23;;;;;;;5.63;1.93;;;;;;;;;;5054010;28;20199;-59
2022/08/03 12:36:02;;;;;;;3.33;1.90;;;;;;;;;;5053839;28;20200;-57
2022/08/03 12:38:28;;;;;;;11.00;2.40;;;;;;;;;;5054200;28;20236;-57
2022/08/03 12:40:55;;;;;;;5.80;2.23;;;;;;;;;;5053972;28;20279;-57
2022/08/03 12:43:21;;;;;;;5.50;1.90;;;;;;;;;;5053939;28;20240;-57
2022/08/03 12:45:47;;;;;;;4.17;2.30;;;;;;;;;;5052575;28;20469;-57
2022/08/03 12:48:13;;;;;;;4.57;1.90;;;;;;;;;;5053824;28;20245;-57
2022/08/03 12:50:40;;;;;;;5.63;2.10;;;;;;;;;;5053733;28;20206;-58
2022/08/03 12:53:08;;;;;;;4.25;2.08;;;;;;;;;;5052665;28;20402;-58
2022/08/03 12:55:34;;;;;;;4.60;2.07;;;;;;;;;;5053787;28;20239;-58
2022/08/03 12:58:00;;;;;;;9.40;2.70;;;;;;;;;;5053757;28;20224;-58
2022/08/03 13:00:28;;;;;;;4.53;2.10;;;;;;;;;;5054005;28;20646;-58
2022/08/03 13:02:58;;;;;;;4.13;1.73;;;;;;;;;;5053607;28;20203;-57
2022/08/03 13:05:24;;;;;;;5.07;2.23;;;;;;;;;;5053635;28;20254;-56
2022/08/03 13:07:50;;;;;;;3.60;2.10;;;;;;;;;;5053499;28;20200;-56
2022/08/03 13:10:28;;;;;;;6.68;2.17;;;;;;;;;;5052422;28;20504;-57
2022/08/03 13:12:57;;;;;;;6.03;2.03;;;;;;;;;;5053380;28;20200;-57
2022/08/03 13:15:25;;;;;;;4.60;1.70;;;;;;;;;;5053348;28;20209;-56
2022/08/03 13:17:51;;;;;;;5.67;1.80;;;;;;;;;;5052997;28;20219;-57
2022/08/03 13:20:17;;;;;;;5.17;2.20;;;;;;;;;;5052893;28;20204;-57
2022/08/03 13:22:46;;;;;;;6.43;2.27;;;;;;;;;;5053286;28;20208;-56
2022/08/03 13:25:12;;;;;;;8.17;2.30;;;;;;;;;;5053381;28;20207;-56
2022/08/03 13:27:40;;;;;;;11.90;2.43;;;;;;;;;;5053238;28;20227;-56
2022/08/03 13:30:07;;;;;;;6.00;2.40;;;;;;;;;;5053201;28;20200;-56
2022/08/03 13:32:33;;;;;;;7.67;2.43;;;;;;;;;;5053224;28;20302;-56
2022/08/03 13:35:01;;;;;;;4.43;2.20;;;;;;;;;;5051966;28;20480;-56
2022/08/03 13:37:27;;;;;;;5.53;2.20;;;;;;;;;;5051881;28;20811;-57
2022/08/03 13:39:53;;;;;;;4.37;2.10;;;;;;;;;;5052755;28;20280;-56
2022/08/03 13:42:19;;;;;;;5.03;2.47;;;;;;;;;;5051690;28;20484;-57
2022/08/03 13:44:46;;;;;;;3.37;2.00;;;;;;;;;;5051437;28;20429;-57
2022/08/03 13:47:12;;;;;;;8.95;2.42;;;;;;;;;;5051579;28;20412;-57
2022/08/03 13:49:38;;;;;;;3.50;2.10;;;;;;;;;;5052670;28;20203;-57
2022/08/03 13:52:05;;;;;;;4.07;2.10;;;;;;;;;;5052637;28;20259;-57
2022/08/03 13:54:32;;;;;;;3.53;2.23;;;;;;;;;;5052709;28;20736;-57
2022/08/03 13:56:58;;;;;;;8.07;2.23;;;;;;;;;;5052641;28;20204;-57
2022/08/03 13:59:25;;;;;;;5.70;1.93;;;;;;;;;;5052745;28;20227;-57
2022/08/03 14:01:53;;;;;;;4.53;2.20;;;;;;;;;;5052444;28;20200;-57
2022/08/03 14:04:19;;;;;;;3.97;1.80;;;;;;;;;;5052575;28;20211;-57
2022/08/03 14:06:45;;;;;;;5.43;2.10;;;;;;;;;;5052480;28;20194;-57
2022/08/03 14:09:12;;;;;;;4.30;1.97;;;;;;;;;;5052420;28;20196;-57
2022/08/03 14:11:38;;;;;;;5.20;2.27;;;;;;;;;;5052350;28;20204;-57
2022/08/03 14:14:04;;;;;;;4.97;2.27;;;;;;;;;;5052200;28;20253;-57
2022/08/03 14:16:30;;;;;;;4.03;2.00;;;;;;;;;;5052369;28;20273;-57
2022/08/03 14:18:57;;;;;;;6.37;2.10;;;;;;;;;;5051915;28;20251;-57
2022/08/03 14:21:23;;;;;;;4.23;2.10;;;;;;;;;;5052146;28;20210;-57
2022/08/03 14:23:49;;;;;;;5.60;2.27;;;;;;;;;;5051982;28;20206;-57
2022/08/03 14:26:17;;;;;;;4.10;1.90;;;;;;;;;;5052157;28;20195;-57
2022/08/03 14:28:43;;;;;;;5.70;2.10;;;;;;;;;;5052058;28;20200;-57
2022/08/03 14:31:09;;;;;;;3.00;1.80;;;;;;;;;;5051995;28;20689;-57
2022/08/03 14:33:35;;;;;;;4.37;1.80;;;;;;;;;;5051141;28;20214;-57
2022/08/03 14:36:03;;;;;;;4.53;1.97;;;;;;;;;;5051922;28;20676;-57
2022/08/03 14:38:29;;;;;;;10.20;2.00;;;;;;;;;;5051978;28;20635;-57
2022/08/03 14:40:55;;;;;;;2.40;1.60;;;;;;;;;;5051732;28;20680;-57
2022/08/03 14:43:21;;;;;;;3.27;1.67;;;;;;;;;;5051573;28;20240;-57
2022/08/03 14:45:47;;;;;;;6.23;1.90;;;;;;;;;;5051760;28;20226;-57
2022/08/03 14:48:13;;;;;;;4.30;2.10;;;;;;;;;;5050690;28;20413;-57
2022/08/03 14:50:39;;;;;;;3.43;2.00;;;;;;;;;;5050459;28;20421;-57
2022/08/03 14:53:06;;;;;;;4.20;2.03;;;;;;;;;;5050396;28;20894;-57
2022/08/03 14:55:32;;;;;;;6.82;2.20;;;;;;;;;;5050506;28;20413;-57